createdAt,value
2023-06-19T00:04:43.248Z,53.97
2023-06-19T00:09:49.909Z,53.77
2023-06-19T00:14:57.081Z,53.30
2023-06-19T00:20:04.326Z,53.67
2023-06-19T00:25:11.847Z,54.13
2023-06-19T00:30:19.208Z,54.25
2023-06-19T00:35:26.567Z,54.60
2023-06-19T00:40:36.141Z,55.67
2023-06-19T00:45:44.575Z,54.67
2023-06-19T00:50:53.877Z,54.30
2023-06-19T00:56:02.281Z,53.93
2023-06-19T01:01:10.146Z,54.13
2023-06-19T01:06:24.539Z,53.60
2023-06-19T01:11:36.558Z,53.38
2023-06-19T01:16:44.702Z,53.67
2023-06-19T01:21:52.044Z,53.63
2023-06-19T01:26:58.792Z,53.50
2023-06-19T01:32:11.009Z,53.63
2023-06-19T01:37:18.439Z,53.90
2023-06-19T01:42:25.440Z,53.00
2023-06-19T01:47:32.345Z,53.45
2023-06-19T01:52:41.810Z,53.93
2023-06-19T01:57:49.205Z,52.73
2023-06-19T02:02:55.923Z,52.93
2023-06-19T02:08:04.237Z,52.67
2023-06-19T02:13:11.218Z,53.03
2023-06-19T02:18:18.470Z,52.90
2023-06-19T02:28:33.089Z,52.15
2023-06-19T02:33:40.122Z,52.27
2023-06-19T02:38:47.808Z,52.87
2023-06-19T02:43:55.634Z,52.80
2023-06-19T02:49:03.099Z,52.50
2023-06-19T02:54:09.854Z,52.93
2023-06-19T02:59:17.340Z,52.97
2023-06-19T03:04:29.193Z,52.53
2023-06-19T03:09:36.583Z,52.77
2023-06-19T03:14:43.312Z,53.10
2023-06-19T03:19:51.359Z,52.70
2023-06-19T03:24:58.314Z,52.30
2023-06-19T03:30:07.852Z,53.30
2023-06-19T03:35:16.198Z,52.57
2023-06-19T03:40:23.985Z,53.38
2023-06-19T03:45:31.604Z,52.90
2023-06-19T03:50:38.524Z,53.73
2023-06-19T03:55:45.794Z,53.43
2023-06-19T04:00:53.626Z,54.33
2023-06-19T04:06:00.640Z,53.90
2023-06-19T04:11:07.474Z,54.03
2023-06-19T04:16:13.762Z,53.80
2023-06-19T04:26:27.306Z,54.13
2023-06-19T04:31:35.154Z,54.30
2023-06-19T04:36:42.471Z,54.57
2023-06-19T04:41:49.350Z,54.70
2023-06-19T04:46:57.888Z,55.50
2023-06-19T04:52:04.885Z,55.40
2023-06-19T04:57:12.159Z,56.73
2023-06-19T05:02:18.982Z,57.20
2023-06-19T05:07:25.983Z,55.78
2023-06-19T05:12:33.453Z,56.75
2023-06-19T05:17:40.451Z,58.00
2023-06-19T05:22:47.329Z,56.77
2023-06-19T05:27:54.010Z,57.23
2023-06-19T05:33:01.738Z,56.13
2023-06-19T05:38:08.654Z,57.17
2023-06-19T05:43:17.839Z,57.24
2023-06-19T05:48:26.347Z,57.73
2023-06-19T05:53:33.313Z,57.60
2023-06-19T05:58:40.781Z,56.90
2023-06-19T06:03:47.678Z,57.43
2023-06-19T06:08:56.844Z,59.03
2023-06-19T06:14:03.592Z,58.73
2023-06-19T06:19:11.018Z,58.50
2023-06-19T06:24:19.116Z,59.13
2023-06-19T06:29:25.953Z,58.63
2023-06-19T06:34:33.661Z,58.57
2023-06-19T06:39:41.837Z,58.57
2023-06-19T06:44:49.069Z,58.47
2023-06-19T06:49:56.638Z,57.27
2023-06-19T06:55:04.113Z,58.00
2023-06-19T07:00:12.708Z,58.17
2023-06-19T07:05:19.674Z,57.77
2023-06-19T07:10:26.976Z,57.87
2023-06-19T07:15:34.452Z,58.67
2023-06-19T07:20:41.512Z,58.77
2023-06-19T07:25:49.908Z,59.10
2023-06-19T07:30:56.812Z,59.07
2023-06-19T07:36:07.179Z,62.67
2023-06-19T07:41:14.850Z,61.53
2023-06-19T07:46:21.642Z,61.04
2023-06-19T07:51:29.044Z,62.03
2023-06-19T07:56:36.575Z,61.10
2023-06-19T08:01:43.597Z,61.97
2023-06-19T08:06:51.013Z,60.67
2023-06-19T08:11:58.358Z,60.33
2023-06-19T08:17:06.754Z,61.90
2023-06-19T08:22:13.743Z,61.20
2023-06-19T08:27:20.607Z,62.50
2023-06-19T08:32:28.247Z,62.23
2023-06-19T08:37:35.729Z,60.78
2023-06-19T08:42:44.725Z,60.53
2023-06-19T08:47:52.023Z,60.40
2023-06-19T08:52:59.784Z,62.87
2023-06-19T08:58:07.641Z,61.47
2023-06-19T09:03:16.305Z,60.00
2023-06-19T09:08:25.381Z,60.10
2023-06-19T09:13:34.521Z,59.30
2023-06-19T09:18:49.875Z,60.03
2023-06-19T09:23:56.817Z,59.50
2023-06-19T09:29:21.776Z,60.10
2023-06-19T09:34:28.757Z,59.70
2023-06-19T09:39:38.578Z,59.90
2023-06-19T09:44:47.313Z,60.27
2023-06-19T09:49:59.013Z,60.60
2023-06-19T09:55:11.083Z,60.50
2023-06-19T10:00:20.839Z,61.03
2023-06-19T10:05:36.888Z,61.27
2023-06-19T10:10:51.070Z,61.37
2023-06-19T10:15:58.267Z,61.67
2023-06-19T10:21:05.385Z,63.05
2023-06-19T10:26:15.418Z,62.53
2023-06-19T10:31:22.082Z,61.80
2023-06-19T10:36:29.399Z,61.55
2023-06-19T10:41:36.624Z,62.40
2023-06-19T10:46:43.963Z,62.23
2023-06-19T10:51:52.196Z,61.43
2023-06-19T10:56:59.698Z,61.60
2023-06-19T11:02:07.628Z,61.68
2023-06-19T11:07:15.183Z,61.80
2023-06-19T11:12:24.527Z,61.00
2023-06-19T11:17:32.350Z,61.18
2023-06-19T11:22:42.030Z,60.95
2023-06-19T11:27:51.121Z,60.77
2023-06-19T11:32:58.248Z,60.73
2023-06-19T11:38:08.491Z,61.25
2023-06-19T11:43:18.072Z,60.67
2023-06-19T11:48:27.157Z,61.02
2023-06-19T11:53:34.800Z,61.40
2023-06-19T11:58:41.826Z,61.73
2023-06-19T12:03:50.197Z,61.55
2023-06-19T12:08:57.913Z,61.30
2023-06-19T12:14:06.154Z,61.63
2023-06-19T12:19:20.680Z,61.67
2023-06-19T12:24:22.021Z,62.64
2023-06-19T12:29:29.005Z,61.65
2023-06-19T12:34:36.073Z,63.13
2023-06-19T12:39:44.249Z,61.93
2023-06-19T12:44:51.384Z,61.57
2023-06-19T12:49:58.395Z,62.83
2023-06-19T12:55:06.007Z,61.37
2023-06-19T13:00:16.739Z,60.60
2023-06-19T13:05:24.297Z,62.03
2023-06-19T13:10:32.291Z,61.58
2023-06-19T13:15:40.178Z,60.85
2023-06-19T13:20:49.461Z,62.27
2023-06-19T13:25:56.708Z,61.17
2023-06-19T13:31:04.340Z,61.77
2023-06-19T13:36:12.403Z,62.10
2023-06-19T13:41:19.428Z,61.37
2023-06-19T13:46:26.203Z,62.10
2023-06-19T13:51:33.975Z,61.77
2023-06-19T13:56:41.307Z,61.40
2023-06-19T14:01:48.372Z,61.80
2023-06-19T14:06:56.210Z,61.43
2023-06-19T14:12:03.177Z,60.87
2023-06-19T14:17:10.563Z,61.73
2023-06-19T14:22:18.998Z,62.23
2023-06-19T14:27:25.866Z,62.08
2023-06-19T14:32:33.101Z,61.47
2023-06-19T14:37:40.377Z,61.20
2023-06-19T14:42:48.245Z,62.70
2023-06-19T14:47:55.434Z,61.43
2023-06-19T14:53:02.740Z,61.77
2023-06-19T14:58:10.003Z,62.48
2023-06-19T15:03:17.861Z,62.45
2023-06-19T15:08:25.432Z,62.70
2023-06-19T15:13:33.903Z,61.37
2023-06-19T15:18:41.054Z,62.00
2023-06-19T15:23:48.228Z,63.87
2023-06-19T15:28:55.392Z,62.40
2023-06-19T15:34:02.473Z,63.57
2023-06-19T15:39:09.748Z,63.53
2023-06-19T15:44:17.982Z,62.80
2023-06-19T15:49:24.864Z,63.43
2023-06-19T15:54:31.361Z,63.70
2023-06-19T15:59:39.138Z,61.87
2023-06-19T16:04:46.910Z,61.50
2023-06-19T16:09:55.863Z,62.43
2023-06-19T16:15:03.037Z,62.07
2023-06-19T16:20:12.425Z,61.77
2023-06-19T16:25:19.536Z,61.97
2023-06-19T16:30:27.637Z,61.85
2023-06-19T16:35:35.270Z,62.47
2023-06-19T16:40:42.444Z,61.30
2023-06-19T16:45:49.472Z,62.47
2023-06-19T16:50:56.985Z,61.30
2023-06-19T16:56:04.004Z,62.43
2023-06-19T17:01:13.201Z,62.45
2023-06-19T17:06:20.787Z,62.33
2023-06-19T17:11:28.744Z,62.40
2023-06-19T17:16:35.429Z,63.20
2023-06-19T17:21:43.054Z,63.13
2023-06-19T17:26:52.010Z,63.07
2023-06-19T17:32:00.570Z,63.33
2023-06-19T17:37:08.165Z,63.43
2023-06-19T17:42:15.405Z,64.00
2023-06-19T17:47:22.222Z,62.08
2023-06-19T17:52:31.195Z,62.50
2023-06-19T17:57:39.214Z,63.23
2023-06-19T18:02:47.770Z,62.50
2023-06-19T18:07:54.536Z,61.95
2023-06-19T18:13:02.870Z,62.10
2023-06-19T18:18:10.000Z,62.37
2023-06-19T18:23:18.397Z,63.02
2023-06-19T18:28:25.520Z,63.70
2023-06-19T18:33:33.686Z,62.88
2023-06-19T18:38:42.100Z,62.45
2023-06-19T18:43:49.147Z,62.33
2023-06-19T18:48:56.101Z,62.30
2023-06-19T18:54:03.650Z,62.37
2023-06-19T18:59:11.175Z,62.50
2023-06-19T19:04:19.505Z,63.42
2023-06-19T19:09:27.156Z,63.42
2023-06-19T19:14:34.380Z,63.10
2023-06-19T19:19:42.115Z,61.97
2023-06-19T19:24:49.666Z,63.20
2023-06-19T19:29:58.125Z,62.90
2023-06-19T19:35:05.681Z,63.70
2023-06-19T19:40:14.253Z,63.87
2023-06-19T19:45:21.255Z,62.80
2023-06-19T19:50:29.123Z,62.93
2023-06-19T19:55:36.102Z,62.10
2023-06-19T20:00:44.939Z,62.53
2023-06-19T20:05:52.471Z,62.58
2023-06-19T20:10:59.675Z,61.37
2023-06-19T20:16:07.267Z,61.40
2023-06-19T20:21:14.309Z,60.67
2023-06-19T20:26:21.708Z,61.07
2023-06-19T20:31:29.005Z,59.83
2023-06-19T20:36:36.944Z,59.73
2023-06-19T20:41:45.753Z,59.70
2023-06-19T20:46:53.865Z,60.25
2023-06-19T20:52:02.671Z,60.80
2023-06-19T20:57:10.268Z,62.80
2023-06-19T21:02:18.317Z,61.45
2023-06-19T21:07:26.049Z,59.67
2023-06-19T21:12:33.648Z,59.37
2023-06-19T21:17:41.521Z,59.10
2023-06-19T21:22:48.657Z,59.33
2023-06-19T21:27:56.283Z,59.27
2023-06-19T21:33:03.522Z,59.53
2023-06-19T21:38:12.838Z,59.10
2023-06-19T21:43:19.743Z,59.90
2023-06-19T21:48:30.058Z,58.58
2023-06-19T21:53:36.673Z,59.48
2023-06-19T21:58:44.109Z,58.67
2023-06-19T22:03:51.384Z,59.75
2023-06-19T22:09:00.518Z,58.98
2023-06-19T22:14:07.588Z,59.93
2023-06-19T22:19:14.768Z,58.87
2023-06-19T22:24:21.373Z,58.80
2023-06-19T22:29:32.192Z,58.23
2023-06-19T22:34:39.511Z,59.07
2023-06-19T22:39:47.457Z,58.27
2023-06-19T22:44:55.317Z,58.33
2023-06-19T22:50:04.031Z,58.40
2023-06-19T22:55:11.613Z,58.77
2023-06-19T23:00:19.810Z,58.45
2023-06-19T23:05:27.607Z,58.37
2023-06-19T23:10:34.357Z,58.43
2023-06-19T23:15:41.871Z,58.57
2023-06-19T23:20:48.655Z,58.53
2023-06-19T23:25:56.354Z,59.00
2023-06-19T23:31:03.847Z,58.83
2023-06-19T23:36:11.428Z,58.37
2023-06-19T23:41:19.999Z,57.77
2023-06-19T23:46:27.813Z,57.50
2023-06-19T23:51:36.314Z,58.65
2023-06-19T23:56:43.225Z,58.43
